createdAt,value
2019-03-05T00:01:22.883Z,67.50
2019-03-05T00:03:50.318Z,67.20
2019-03-05T00:06:17.705Z,67.00
2019-03-05T00:08:45.088Z,67.30
2019-03-05T00:11:12.924Z,67.10
2019-03-05T00:13:40.332Z,67.40
2019-03-05T00:16:07.793Z,67.50
2019-03-05T00:18:35.432Z,67.40
2019-03-05T00:21:02.831Z,67.10
2019-03-05T00:23:30.233Z,67.10
2019-03-05T00:25:57.666Z,66.70
2019-03-05T00:28:25.081Z,66.90
2019-03-05T00:30:52.557Z,66.90
2019-03-05T00:33:19.989Z,66.80
2019-03-05T00:35:47.385Z,67.50
2019-03-05T00:38:14.865Z,67.00
2019-03-05T00:40:42.303Z,66.90
2019-03-05T00:43:09.781Z,67.10
2019-03-05T00:45:37.303Z,66.70
2019-03-05T00:48:04.736Z,66.60
2019-03-05T00:50:32.127Z,67.00
2019-03-05T00:52:59.532Z,66.50
2019-03-05T00:55:26.957Z,66.50
2019-03-05T00:57:54.429Z,66.00
2019-03-05T01:00:22.009Z,66.50
2019-03-05T01:02:49.458Z,66.60
2019-03-05T01:05:16.879Z,66.20
2019-03-05T01:07:44.283Z,66.50
2019-03-05T01:10:12.073Z,66.50
2019-03-05T01:12:39.600Z,67.00
2019-03-05T01:15:07.006Z,66.00
2019-03-05T01:17:34.411Z,66.40
2019-03-05T01:20:01.836Z,66.40
2019-03-05T01:22:29.305Z,66.40
2019-03-05T01:24:56.778Z,66.40
2019-03-05T01:27:24.167Z,66.10
2019-03-05T01:29:51.603Z,66.20
2019-03-05T01:32:37.982Z,65.80
2019-03-05T01:35:33.728Z,66.10
2019-03-05T01:38:01.168Z,66.00
2019-03-05T01:40:34.332Z,65.50
2019-03-05T01:43:01.807Z,66.30
2019-03-05T01:45:29.312Z,65.60
2019-03-05T01:47:56.801Z,65.50
2019-03-05T01:50:24.204Z,65.80
2019-03-05T01:52:51.635Z,66.00
2019-03-05T01:55:19.048Z,65.90
2019-03-05T01:57:46.483Z,66.10
2019-03-05T02:00:14.003Z,65.90
2019-03-05T02:02:41.413Z,65.90
2019-03-05T02:05:08.819Z,66.10
2019-03-05T02:07:36.315Z,65.60
2019-03-05T02:10:03.731Z,65.60
2019-03-05T02:12:31.231Z,65.80
2019-03-05T02:14:58.694Z,65.90
2019-03-05T02:17:26.092Z,65.80
2019-03-05T02:19:53.488Z,65.40
2019-03-05T02:22:20.920Z,65.50
2019-03-05T02:24:48.348Z,64.80
2019-03-05T02:27:15.845Z,65.00
2019-03-05T02:29:43.257Z,66.20
2019-03-05T02:32:10.643Z,64.60
2019-03-05T02:34:38.340Z,64.80
2019-03-05T02:37:05.696Z,65.30
2019-03-05T02:39:33.164Z,64.60
2019-03-05T02:42:00.731Z,65.30
2019-03-05T02:44:28.223Z,65.00
2019-03-05T02:46:55.618Z,64.10
2019-03-05T02:49:23.028Z,65.00
2019-03-05T02:51:50.565Z,64.00
2019-03-05T02:54:18.023Z,63.80
2019-03-05T02:56:45.430Z,64.60
2019-03-05T02:59:12.868Z,64.00
2019-03-05T03:02:11.645Z,64.40
2019-03-05T03:04:42.777Z,63.70
2019-03-05T03:07:10.252Z,63.90
2019-03-05T03:09:37.656Z,63.90
2019-03-05T03:12:05.075Z,64.00
2019-03-05T03:14:32.471Z,63.90
2019-03-05T03:16:59.877Z,64.00
2019-03-05T03:19:27.288Z,63.90
2019-03-05T03:21:54.664Z,64.10
2019-03-05T03:24:22.068Z,64.50
2019-03-05T03:26:49.505Z,63.90
2019-03-05T03:29:16.925Z,64.10
2019-03-05T03:31:44.395Z,63.80
2019-03-05T03:34:11.886Z,63.30
2019-03-05T03:36:39.477Z,64.00
2019-03-05T03:39:06.937Z,64.10
2019-03-05T03:41:34.376Z,63.90
2019-03-05T03:44:01.749Z,64.10
2019-03-05T03:46:29.175Z,64.10
2019-03-05T03:48:56.678Z,63.60
2019-03-05T03:51:24.070Z,63.90
2019-03-05T03:53:51.457Z,63.60
2019-03-05T03:56:18.880Z,64.10
2019-03-05T03:58:46.315Z,63.80
2019-03-05T04:01:13.725Z,63.50
2019-03-05T04:03:41.403Z,63.60
2019-03-05T04:06:08.869Z,63.90
2019-03-05T04:08:36.338Z,63.50
2019-03-05T04:11:03.826Z,63.60
2019-03-05T04:13:31.371Z,63.60
2019-03-05T04:15:58.774Z,63.50
2019-03-05T04:18:26.261Z,63.40
2019-03-05T04:20:53.690Z,62.90
2019-03-05T04:23:21.063Z,63.70
2019-03-05T04:25:48.493Z,62.60
2019-03-05T04:28:15.964Z,62.90
2019-03-05T04:30:43.357Z,62.50
2019-03-05T04:33:10.793Z,62.70
2019-03-05T04:35:38.176Z,63.40
2019-03-05T04:38:05.571Z,62.90
2019-03-05T04:40:33.001Z,62.50
2019-03-05T04:43:00.498Z,62.50
2019-03-05T04:45:31.011Z,62.50
2019-03-05T04:47:58.419Z,62.50
2019-03-05T04:50:44.764Z,63.10
2019-03-05T04:53:12.191Z,62.60
2019-03-05T04:55:39.596Z,62.90
2019-03-05T04:58:07.068Z,62.50
2019-03-05T05:00:34.560Z,62.70
2019-03-05T05:03:02.013Z,63.00
2019-03-05T05:05:29.408Z,62.70
2019-03-05T05:07:56.900Z,62.40
2019-03-05T05:10:24.292Z,62.20
2019-03-05T05:12:51.739Z,61.40
2019-03-05T05:15:19.170Z,62.20
2019-03-05T05:17:46.574Z,61.60
2019-03-05T05:20:13.987Z,61.90
2019-03-05T05:22:41.693Z,61.60
2019-03-05T05:25:09.088Z,62.10
2019-03-05T05:27:36.500Z,61.60
2019-03-05T05:30:03.941Z,61.90
2019-03-05T05:32:31.362Z,62.00
2019-03-05T05:34:58.758Z,61.40
2019-03-05T05:37:26.187Z,62.20
2019-03-05T05:39:53.591Z,61.70
2019-03-05T05:42:21.119Z,61.90
2019-03-05T05:44:48.544Z,61.90
2019-03-05T05:47:15.927Z,61.20
2019-03-05T05:49:43.327Z,60.90
2019-03-05T05:52:10.817Z,60.50
2019-03-05T05:54:38.222Z,61.60
2019-03-05T05:57:06.153Z,60.60
2019-03-05T05:59:33.578Z,60.50
2019-03-05T06:02:00.967Z,60.40
2019-03-05T06:04:28.380Z,60.50
2019-03-05T06:06:55.790Z,60.80
2019-03-05T06:09:23.292Z,60.60
2019-03-05T06:11:50.693Z,60.40
2019-03-05T06:14:18.114Z,60.80
2019-03-05T06:16:45.512Z,60.00
2019-03-05T06:19:12.997Z,60.40
2019-03-05T06:21:40.494Z,60.40
2019-03-05T06:24:07.951Z,60.90
2019-03-05T06:26:35.494Z,61.10
2019-03-05T06:29:02.894Z,60.60
2019-03-05T06:31:30.304Z,61.20
2019-03-05T06:33:57.840Z,60.40
2019-03-05T06:36:25.238Z,60.50
2019-03-05T06:38:52.618Z,60.50
2019-03-05T06:41:20.043Z,61.30
2019-03-05T06:43:47.429Z,62.20
2019-03-05T06:46:14.803Z,62.10
2019-03-05T06:48:42.232Z,62.20
2019-03-05T06:51:09.662Z,62.20
2019-03-05T06:53:37.065Z,62.50
2019-03-05T06:56:04.511Z,62.10
2019-03-05T06:58:31.919Z,62.00
2019-03-05T07:00:59.329Z,61.20
2019-03-05T07:03:26.736Z,60.80
2019-03-05T07:05:54.148Z,60.40
2019-03-05T07:08:21.687Z,60.30
2019-03-05T07:10:49.143Z,60.10
2019-03-05T07:13:16.516Z,59.90
2019-03-05T07:15:43.895Z,59.60
2019-03-05T07:18:11.321Z,60.30
2019-03-05T07:20:38.692Z,61.00
2019-03-05T07:23:06.099Z,60.60
2019-03-05T07:25:33.537Z,60.30
2019-03-05T07:28:00.937Z,59.80
2019-03-05T07:30:28.347Z,60.00
2019-03-05T07:32:55.872Z,59.80
2019-03-05T07:35:28.043Z,59.90
2019-03-05T07:37:55.449Z,59.90
2019-03-05T07:40:22.847Z,59.90
2019-03-05T07:42:50.291Z,60.00
2019-03-05T07:45:17.721Z,59.90
2019-03-05T07:47:45.116Z,60.00
2019-03-05T07:50:12.593Z,59.90
2019-03-05T07:52:40.108Z,60.10
2019-03-05T07:55:13.663Z,60.00
2019-03-05T07:57:36.771Z,60.20
2019-03-05T08:00:05.448Z,60.10
2019-03-05T08:02:33.300Z,60.00
2019-03-05T08:05:00.780Z,60.10
2019-03-05T08:07:28.195Z,60.00
2019-03-05T08:09:55.593Z,60.10
2019-03-05T08:12:22.989Z,60.40
2019-03-05T08:14:50.407Z,60.90
2019-03-05T08:17:18.091Z,60.40
2019-03-05T08:19:45.511Z,59.90
2019-03-05T08:22:13.010Z,58.90
2019-03-05T08:24:40.426Z,58.90
2019-03-05T08:27:07.925Z,58.90
2019-03-05T08:29:35.344Z,58.80
2019-03-05T08:32:02.736Z,58.70
2019-03-05T08:34:30.116Z,58.80
2019-03-05T08:36:57.598Z,58.70
2019-03-05T08:39:25.067Z,59.00
2019-03-05T08:41:52.521Z,58.70
2019-03-05T08:44:19.965Z,58.70
2019-03-05T08:46:47.345Z,58.30
2019-03-05T08:49:14.763Z,58.60
2019-03-05T08:51:42.183Z,58.30
2019-03-05T08:54:09.590Z,58.60
2019-03-05T08:56:36.972Z,58.40
2019-03-05T08:59:04.392Z,59.10
2019-03-05T09:01:31.799Z,59.30
2019-03-05T09:03:59.181Z,58.90
2019-03-05T09:06:26.618Z,58.80
2019-03-05T09:08:54.041Z,58.70
2019-03-05T09:11:21.443Z,58.60
2019-03-05T09:13:48.852Z,58.30
2019-03-05T09:16:16.298Z,58.30
2019-03-05T09:18:43.687Z,58.40
2019-03-05T09:21:11.140Z,58.30
2019-03-05T09:23:38.534Z,58.10
2019-03-05T09:26:05.932Z,58.50
2019-03-05T09:28:33.387Z,58.20
2019-03-05T09:31:00.781Z,58.50
2019-03-05T09:33:28.200Z,58.20
2019-03-05T09:35:55.625Z,58.20
2019-03-05T09:38:23.015Z,58.20
2019-03-05T09:40:50.402Z,57.90
2019-03-05T09:43:17.902Z,58.10
2019-03-05T09:45:45.279Z,58.00
2019-03-05T09:48:12.980Z,58.20
2019-03-05T09:50:40.415Z,57.90
2019-03-05T09:53:07.827Z,58.00
2019-03-05T09:55:35.242Z,57.70
2019-03-05T09:58:08.096Z,57.60
2019-03-05T10:00:31.788Z,58.10
2019-03-05T10:02:59.253Z,57.10
2019-03-05T10:05:26.681Z,57.20
2019-03-05T10:07:54.114Z,57.50
2019-03-05T10:10:21.579Z,57.60
2019-03-05T10:12:48.999Z,57.40
2019-03-05T10:15:16.427Z,57.10
2019-03-05T10:17:43.854Z,57.40
2019-03-05T10:20:11.244Z,57.10
2019-03-05T10:22:38.648Z,57.40
2019-03-05T10:25:06.546Z,57.50
2019-03-05T10:27:34.023Z,57.30
2019-03-05T10:30:01.437Z,57.60
2019-03-05T10:32:28.835Z,58.40
2019-03-05T10:34:56.256Z,58.40
2019-03-05T10:37:23.633Z,58.70
2019-03-05T10:39:51.492Z,59.20
2019-03-05T10:42:18.935Z,59.00
2019-03-05T10:44:46.300Z,59.30
2019-03-05T10:47:13.703Z,59.00
2019-03-05T10:49:41.511Z,59.40
2019-03-05T10:52:08.949Z,59.10
2019-03-05T10:54:36.410Z,59.20
2019-03-05T10:57:03.851Z,58.80
2019-03-05T10:59:31.391Z,58.40
2019-03-05T11:01:58.910Z,58.60
2019-03-05T11:04:26.347Z,58.60
2019-03-05T11:06:53.755Z,58.60
2019-03-05T11:09:21.462Z,58.70
2019-03-05T11:11:48.906Z,58.50
2019-03-05T11:14:16.319Z,58.50
2019-03-05T11:16:43.723Z,58.60
2019-03-05T11:19:11.153Z,58.90
2019-03-05T11:21:38.563Z,58.60
2019-03-05T11:24:06.074Z,58.30
2019-03-05T11:26:33.490Z,58.30
2019-03-05T11:29:00.887Z,58.00
2019-03-05T11:31:28.277Z,58.40
2019-03-05T11:33:55.707Z,58.40
2019-03-05T11:36:23.121Z,58.30
2019-03-05T11:38:50.632Z,58.20
2019-03-05T11:41:18.072Z,58.50
2019-03-05T11:43:45.472Z,58.30
2019-03-05T11:46:12.862Z,58.50
2019-03-05T11:48:40.297Z,57.80
2019-03-05T11:51:07.977Z,58.10
2019-03-05T11:53:35.368Z,58.00
2019-03-05T11:56:02.789Z,58.00
2019-03-05T11:58:30.221Z,58.40
2019-03-05T12:01:22.621Z,58.40
2019-03-05T12:03:50.006Z,58.60
2019-03-05T12:06:17.487Z,58.80
2019-03-05T12:08:44.957Z,57.80
2019-03-05T12:11:12.336Z,58.30
2019-03-05T12:13:39.764Z,58.20
2019-03-05T12:16:08.238Z,58.00
2019-03-05T12:18:35.735Z,57.80
2019-03-05T12:21:03.114Z,57.80
2019-03-05T12:23:30.556Z,57.70
2019-03-05T12:25:58.052Z,58.00
2019-03-05T12:28:25.448Z,58.20
2019-03-05T12:30:52.852Z,57.40
2019-03-05T12:33:20.262Z,57.50
2019-03-05T12:35:47.666Z,56.80
2019-03-05T12:38:15.101Z,56.40
2019-03-05T12:40:42.594Z,56.90
2019-03-05T12:43:09.982Z,56.40
2019-03-05T12:45:37.372Z,56.50
2019-03-05T12:48:04.797Z,56.30
2019-03-05T12:50:32.200Z,56.60
2019-03-05T12:52:59.577Z,56.30
2019-03-05T12:55:27.015Z,56.00
2019-03-05T12:57:54.439Z,56.00
2019-03-05T13:00:22.340Z,56.10
2019-03-05T13:02:49.729Z,56.30
2019-03-05T13:05:17.123Z,55.90
2019-03-05T13:07:44.628Z,56.10
2019-03-05T13:10:12.096Z,55.50
2019-03-05T13:12:40.185Z,55.30
2019-03-05T13:15:07.803Z,54.80
2019-03-05T13:17:35.212Z,55.50
2019-03-05T13:20:02.609Z,56.70
2019-03-05T13:22:30.119Z,56.10
2019-03-05T13:24:57.528Z,56.00
2019-03-05T13:27:27.946Z,55.80
2019-03-05T13:29:54.526Z,56.20
2019-03-05T13:32:21.949Z,56.30
2019-03-05T13:34:49.403Z,56.60
2019-03-05T13:37:19.645Z,56.60
2019-03-05T13:39:47.062Z,56.30
2019-03-05T13:42:14.447Z,56.30
2019-03-05T13:44:41.849Z,55.20
2019-03-05T13:47:09.243Z,55.20
2019-03-05T13:49:40.778Z,54.80
2019-03-05T13:52:05.797Z,54.60
2019-03-05T13:54:33.436Z,54.30
2019-03-05T13:57:01.003Z,54.00
2019-03-05T13:59:28.451Z,53.80
2019-03-05T14:01:55.869Z,53.40
2019-03-05T14:04:23.291Z,54.20
2019-03-05T14:06:50.780Z,54.10
2019-03-05T14:09:21.920Z,54.70
2019-03-05T14:11:49.339Z,54.70
2019-03-05T14:14:16.860Z,54.30
2019-03-05T14:16:44.283Z,54.70
2019-03-05T14:19:11.767Z,55.10
2019-03-05T14:21:39.218Z,54.80
2019-03-05T14:24:06.671Z,54.90
2019-03-05T14:26:34.067Z,54.80
2019-03-05T14:29:01.591Z,54.60
2019-03-05T14:31:29.065Z,54.80
2019-03-05T14:33:56.466Z,54.80
2019-03-05T14:36:23.898Z,54.70
2019-03-05T14:38:51.376Z,54.80
2019-03-05T14:41:18.792Z,54.60
2019-03-05T14:43:46.266Z,54.30
2019-03-05T14:46:13.733Z,54.30
2019-03-05T14:48:41.130Z,54.10
2019-03-05T14:51:08.681Z,54.30
2019-03-05T14:53:36.122Z,54.00
2019-03-05T14:56:03.589Z,54.10
2019-03-05T14:58:31.072Z,54.10
2019-03-05T15:00:58.556Z,53.80
2019-03-05T15:03:25.948Z,53.90
2019-03-05T15:05:53.380Z,53.80
2019-03-05T15:08:20.846Z,54.10
2019-03-05T15:10:48.359Z,53.90
2019-03-05T15:13:19.895Z,54.00
2019-03-05T15:15:45.040Z,54.20
2019-03-05T15:18:12.475Z,54.20
2019-03-05T15:20:39.936Z,54.00
2019-03-05T15:23:07.377Z,54.20
2019-03-05T15:25:34.834Z,54.00
2019-03-05T15:28:02.692Z,54.30
2019-03-05T15:30:30.358Z,53.90
2019-03-05T15:32:57.809Z,54.10
2019-03-05T15:35:25.287Z,53.90
2019-03-05T15:37:52.702Z,53.90
2019-03-05T15:40:20.282Z,53.70
2019-03-05T15:42:47.725Z,53.50
2019-03-05T15:45:15.307Z,53.80
2019-03-05T15:47:42.892Z,53.60
2019-03-05T15:50:10.324Z,53.60
2019-03-05T15:52:37.748Z,53.70
2019-03-05T15:55:05.291Z,53.70
2019-03-05T15:57:32.743Z,53.80
2019-03-05T16:00:00.337Z,53.90
2019-03-05T16:02:27.860Z,53.80
2019-03-05T16:04:55.427Z,53.70
2019-03-05T16:07:22.822Z,54.00
2019-03-05T16:09:51.008Z,54.10
2019-03-05T16:12:18.615Z,54.00
2019-03-05T16:14:47.568Z,53.70
2019-03-05T16:17:15.189Z,53.70
2019-03-05T16:19:42.605Z,54.00
2019-03-05T16:22:10.058Z,54.40
2019-03-05T16:24:37.693Z,53.90
2019-03-05T16:27:06.423Z,54.00
2019-03-05T16:29:33.989Z,53.90
2019-03-05T16:32:29.496Z,53.50
2019-03-05T16:35:11.271Z,53.40
2019-03-05T16:37:52.813Z,53.10
2019-03-05T16:40:27.084Z,53.20
2019-03-05T16:43:11.324Z,53.20
2019-03-05T16:46:03.512Z,53.20
2019-03-05T16:48:39.888Z,53.30
2019-03-05T16:51:26.694Z,53.30
2019-03-05T16:54:15.661Z,53.30
2019-03-05T16:56:53.033Z,53.30
2019-03-05T16:59:49.266Z,53.40
2019-03-05T17:02:34.798Z,53.20
2019-03-05T17:05:17.998Z,53.10
2019-03-05T17:08:02.851Z,53.10
2019-03-05T17:10:43.695Z,53.00
2019-03-05T17:13:11.571Z,53.00
2019-03-05T17:15:39.067Z,53.00
2019-03-05T17:18:06.494Z,52.90
2019-03-05T17:20:33.954Z,53.00
2019-03-05T17:23:01.343Z,52.90
2019-03-05T17:25:28.781Z,53.00
2019-03-05T17:27:56.197Z,52.80
2019-03-05T17:30:23.657Z,53.00
2019-03-05T17:32:51.091Z,53.50
2019-03-05T17:35:18.483Z,53.70
2019-03-05T17:37:46.284Z,53.90
2019-03-05T17:40:13.721Z,53.90
2019-03-05T17:42:41.192Z,54.00
2019-03-05T17:45:08.605Z,54.20
2019-03-05T17:47:36.174Z,54.40
2019-03-05T17:50:03.570Z,54.70
2019-03-05T17:52:31.126Z,55.40
2019-03-05T17:54:58.562Z,56.20
2019-03-05T17:57:25.947Z,56.90
2019-03-05T17:59:53.549Z,56.70
2019-03-05T18:02:21.029Z,56.40
2019-03-05T18:04:48.446Z,56.30
2019-03-05T18:07:15.912Z,56.10
2019-03-05T18:09:43.367Z,56.10
2019-03-05T18:12:10.841Z,56.70
2019-03-05T18:14:38.289Z,56.50
2019-03-05T18:17:05.989Z,56.20
2019-03-05T18:19:33.396Z,56.10
2019-03-05T18:22:00.790Z,55.80
2019-03-05T18:24:28.271Z,55.70
2019-03-05T18:26:55.665Z,55.70
2019-03-05T18:29:23.119Z,55.50
2019-03-05T18:31:50.806Z,55.60
2019-03-05T18:34:18.227Z,55.80
2019-03-05T18:36:45.716Z,55.90
2019-03-05T18:39:13.553Z,55.70
2019-03-05T18:41:40.992Z,55.50
2019-03-05T18:44:08.464Z,55.50
2019-03-05T18:46:35.925Z,55.80
2019-03-05T18:49:03.324Z,57.20
2019-03-05T18:51:30.737Z,57.60
2019-03-05T18:53:58.299Z,57.90
2019-03-05T18:56:25.690Z,58.60
2019-03-05T18:58:53.321Z,58.80
2019-03-05T19:01:20.802Z,59.20
2019-03-05T19:03:48.230Z,59.10
2019-03-05T19:06:15.809Z,58.60
2019-03-05T19:08:43.317Z,58.50
2019-03-05T19:11:10.769Z,58.30
2019-03-05T19:13:38.170Z,58.10
2019-03-05T19:16:05.678Z,58.00
2019-03-05T19:18:33.061Z,57.70
2019-03-05T19:21:00.445Z,57.60
2019-03-05T19:23:27.959Z,57.40
2019-03-05T19:25:55.637Z,57.50
2019-03-05T19:28:23.015Z,57.40
2019-03-05T19:30:50.451Z,57.50
2019-03-05T19:33:17.857Z,57.40
2019-03-05T19:35:45.325Z,57.40
2019-03-05T19:38:12.880Z,57.30
2019-03-05T19:40:40.385Z,57.30
2019-03-05T19:43:07.798Z,57.10
2019-03-05T19:45:35.383Z,57.20
2019-03-05T19:48:02.780Z,57.30
2019-03-05T19:50:30.238Z,57.30
2019-03-05T19:52:57.986Z,57.20
2019-03-05T19:55:25.575Z,57.30
2019-03-05T19:57:54.611Z,57.20
2019-03-05T20:00:29.656Z,57.10
2019-03-05T20:02:57.068Z,57.20
2019-03-05T20:05:24.464Z,57.20
2019-03-05T20:07:52.287Z,57.20
2019-03-05T20:10:19.691Z,57.20
2019-03-05T20:12:47.149Z,57.20
2019-03-05T20:15:14.556Z,57.30
2019-03-05T20:17:42.228Z,57.20
2019-03-05T20:20:09.637Z,57.40
2019-03-05T20:22:37.129Z,57.40
2019-03-05T20:25:04.536Z,57.30
2019-03-05T20:27:31.898Z,57.20
2019-03-05T20:29:59.346Z,57.20
2019-03-05T20:32:26.919Z,57.20
2019-03-05T20:34:54.422Z,57.40
2019-03-05T20:37:21.880Z,57.30
2019-03-05T20:39:49.280Z,57.20
2019-03-05T20:42:16.762Z,57.30
2019-03-05T20:44:44.275Z,57.20
2019-03-05T20:47:11.848Z,57.40
2019-03-05T20:49:39.311Z,57.40
2019-03-05T20:52:06.810Z,57.30
2019-03-05T20:54:34.272Z,57.40
2019-03-05T20:57:01.782Z,57.40
2019-03-05T20:59:29.199Z,57.50
2019-03-05T21:01:56.666Z,57.30
2019-03-05T21:04:24.341Z,57.40
2019-03-05T21:06:51.844Z,57.50
2019-03-05T21:09:19.356Z,57.40
2019-03-05T21:11:46.793Z,57.50
2019-03-05T21:14:14.479Z,57.60
2019-03-05T21:16:41.891Z,57.50
2019-03-05T21:19:09.306Z,57.30
2019-03-05T21:21:36.799Z,57.50
2019-03-05T21:24:05.851Z,57.70
2019-03-05T21:26:33.374Z,57.50
2019-03-05T21:29:00.809Z,57.70
2019-03-05T21:31:28.316Z,57.50
2019-03-05T21:33:55.699Z,57.60
2019-03-05T21:36:23.296Z,57.50
2019-03-05T21:38:51.165Z,57.60
2019-03-05T21:41:18.603Z,57.40
2019-03-05T21:43:46.339Z,57.40
2019-03-05T21:46:13.798Z,57.40
2019-03-05T21:48:41.287Z,57.40
2019-03-05T21:51:08.725Z,57.50
2019-03-05T21:53:36.192Z,57.50
2019-03-05T21:56:03.843Z,57.40
2019-03-05T21:58:31.321Z,57.60
2019-03-05T22:00:58.928Z,57.80
2019-03-05T22:03:26.407Z,57.50
2019-03-05T22:05:53.893Z,57.50
2019-03-05T22:08:21.362Z,57.70
2019-03-05T22:10:48.861Z,57.80
2019-03-05T22:13:16.278Z,57.80
2019-03-05T22:15:43.932Z,58.00
2019-03-05T22:18:11.915Z,58.30
2019-03-05T22:20:39.573Z,58.20
2019-03-05T22:23:06.999Z,58.70
2019-03-05T22:25:34.401Z,58.30
2019-03-05T22:28:01.793Z,58.30
2019-03-05T22:30:29.355Z,58.20
2019-03-05T22:32:56.772Z,58.30
2019-03-05T22:35:24.454Z,58.50
2019-03-05T22:37:51.912Z,58.60
2019-03-05T22:40:19.561Z,58.60
2019-03-05T22:42:46.951Z,58.60
2019-03-05T22:45:14.371Z,58.70
2019-03-05T22:47:41.787Z,58.60
2019-03-05T22:50:09.248Z,58.70
2019-03-05T22:52:36.674Z,58.60
2019-03-05T22:55:04.093Z,58.80
2019-03-05T22:57:31.525Z,58.60
2019-03-05T22:59:59.028Z,58.60
2019-03-05T23:02:26.685Z,58.70
2019-03-05T23:04:54.167Z,58.70
2019-03-05T23:07:21.626Z,58.60
2019-03-05T23:09:49.027Z,58.80
2019-03-05T23:12:16.499Z,58.80
2019-03-05T23:14:44.370Z,58.60
2019-03-05T23:17:12.283Z,58.80
2019-03-05T23:19:39.688Z,58.90
2019-03-05T23:22:07.146Z,59.10
2019-03-05T23:24:34.609Z,58.80
2019-03-05T23:27:02.107Z,59.70
2019-03-05T23:29:41.563Z,58.90
2019-03-05T23:32:09.014Z,58.90
2019-03-05T23:34:36.654Z,58.90
2019-03-05T23:37:04.271Z,59.60
2019-03-05T23:39:31.777Z,58.90
2019-03-05T23:41:59.180Z,58.90
2019-03-05T23:44:26.598Z,58.90
2019-03-05T23:46:53.988Z,59.00
2019-03-05T23:49:21.374Z,59.00
2019-03-05T23:51:49.175Z,58.90
2019-03-05T23:54:16.561Z,58.90
2019-03-05T23:56:43.967Z,59.40
2019-03-05T23:59:11.472Z,58.90
